sensor_id;sensor_type;location;lat;lon;timestamp;pressure;altitude;pressure_sealevel;temperature
49557;BMP280;35462;45.048;7.666;2023-07-20T00:11:16;98202.50;;;31.63
49557;BMP280;35462;45.048;7.666;2023-07-20T00:26:35;98217.88;;;31.59
49557;BMP280;35462;45.048;7.666;2023-07-20T00:41:55;98222.47;;;31.40
49557;BMP280;35462;45.048;7.666;2023-07-20T00:57:15;98224.56;;;31.32
49557;BMP280;35462;45.048;7.666;2023-07-20T01:12:42;98233.28;;;31.21
49557;BMP280;35462;45.048;7.666;2023-07-20T01:43:58;98231.88;;;30.08
49557;BMP280;35462;45.048;7.666;2023-07-20T01:59:21;98242.44;;;30.43
49557;BMP280;35462;45.048;7.666;2023-07-20T02:14:42;98244.88;;;30.32
49557;BMP280;35462;45.048;7.666;2023-07-20T02:30:01;98252.59;;;30.18
49557;BMP280;35462;45.048;7.666;2023-07-20T02:45:21;98274.31;;;30.16
49557;BMP280;35462;45.048;7.666;2023-07-20T03:00:42;98287.63;;;30.12
49557;BMP280;35462;45.048;7.666;2023-07-20T03:16:01;98315.69;;;30.05
49557;BMP280;35462;45.048;7.666;2023-07-20T03:31:21;98332.69;;;29.82
49557;BMP280;35462;45.048;7.666;2023-07-20T03:46:41;98363.50;;;29.52
49557;BMP280;35462;45.048;7.666;2023-07-20T04:02:00;98387.88;;;29.43
49557;BMP280;35462;45.048;7.666;2023-07-20T04:17:20;98408.56;;;29.01
49557;BMP280;35462;45.048;7.666;2023-07-20T04:32:39;98433.69;;;29.15
49557;BMP280;35462;45.048;7.666;2023-07-20T04:48:08;98441.09;;;28.99
49557;BMP280;35462;45.048;7.666;2023-07-20T05:03:28;98446.75;;;28.66
49557;BMP280;35462;45.048;7.666;2023-07-20T05:18:48;98445.63;;;28.90
49557;BMP280;35462;45.048;7.666;2023-07-20T05:34:07;98460.94;;;29.07
49557;BMP280;35462;45.048;7.666;2023-07-20T05:49:27;98470.78;;;29.10
49557;BMP280;35462;45.048;7.666;2023-07-20T06:04:47;98463.06;;;29.59
49557;BMP280;35462;45.048;7.666;2023-07-20T06:20:06;98482.94;;;29.97
49557;BMP280;35462;45.048;7.666;2023-07-20T06:35:26;98474.50;;;32.91
49557;BMP280;35462;45.048;7.666;2023-07-20T06:50:45;98469.25;;;35.37
49557;BMP280;35462;45.048;7.666;2023-07-20T07:06:05;98465.41;;;35.73
49557;BMP280;35462;45.048;7.666;2023-07-20T07:21:25;98464.34;;;36.85
49557;BMP280;35462;45.048;7.666;2023-07-20T07:36:44;98466.81;;;40.11
49557;BMP280;35462;45.048;7.666;2023-07-20T07:52:04;98457.59;;;38.06
49557;BMP280;35462;45.048;7.666;2023-07-20T08:07:24;98452.78;;;37.46
49557;BMP280;35462;45.048;7.666;2023-07-20T08:22:43;98441.22;;;37.38
49557;BMP280;35462;45.048;7.666;2023-07-20T08:38:03;98441.94;;;37.61
49557;BMP280;35462;45.048;7.666;2023-07-20T08:53:23;98433.81;;;37.29
49557;BMP280;35462;45.048;7.666;2023-07-20T09:08:43;98414.97;;;37.61
49557;BMP280;35462;45.048;7.666;2023-07-20T09:24:02;98401.44;;;37.79
49557;BMP280;35462;45.048;7.666;2023-07-20T09:39:22;98399.91;;;37.28
49557;BMP280;35462;45.048;7.666;2023-07-20T09:54:44;98384.13;;;36.95
49557;BMP280;35462;45.048;7.666;2023-07-20T10:10:04;98369.53;;;36.26
49557;BMP280;35462;45.048;7.666;2023-07-20T10:25:26;98346.63;;;36.58
49557;BMP280;35462;45.048;7.666;2023-07-20T10:40:55;98351.44;;;36.57
49557;BMP280;35462;45.048;7.666;2023-07-20T10:56:19;98335.59;;;36.46
49557;BMP280;35462;45.048;7.666;2023-07-20T11:11:39;98315.16;;;36.17
49557;BMP280;35462;45.048;7.666;2023-07-20T11:26:59;98310.56;;;35.99
49557;BMP280;35462;45.048;7.666;2023-07-20T11:42:20;98279.88;;;36.04
49557;BMP280;35462;45.048;7.666;2023-07-20T11:57:40;98258.66;;;35.95
49557;BMP280;35462;45.048;7.666;2023-07-20T12:13:03;98242.19;;;35.75
49557;BMP280;35462;45.048;7.666;2023-07-20T12:28:23;98228.53;;;35.44
49557;BMP280;35462;45.048;7.666;2023-07-20T12:43:44;98217.91;;;35.50
49557;BMP280;35462;45.048;7.666;2023-07-20T12:59:03;98195.00;;;35.48
49557;BMP280;35462;45.048;7.666;2023-07-20T13:14:24;98192.81;;;35.46
49557;BMP280;35462;45.048;7.666;2023-07-20T13:29:44;98184.44;;;35.44
49557;BMP280;35462;45.048;7.666;2023-07-20T13:45:05;98159.47;;;35.31
49557;BMP280;35462;45.048;7.666;2023-07-20T14:00:24;98148.59;;;35.33
49557;BMP280;35462;45.048;7.666;2023-07-20T14:15:45;98151.41;;;35.12
49557;BMP280;35462;45.048;7.666;2023-07-20T14:31:04;98128.44;;;35.19
49557;BMP280;35462;45.048;7.666;2023-07-20T14:46:24;98117.63;;;35.12
49557;BMP280;35462;45.048;7.666;2023-07-20T15:01:44;98106.59;;;35.00
49557;BMP280;35462;45.048;7.666;2023-07-20T15:17:04;98097.06;;;34.92
49557;BMP280;35462;45.048;7.666;2023-07-20T15:32:24;98080.03;;;34.84
49557;BMP280;35462;45.048;7.666;2023-07-20T15:47:43;98060.44;;;34.89
49557;BMP280;35462;45.048;7.666;2023-07-20T16:03:03;98070.47;;;34.74
49557;BMP280;35462;45.048;7.666;2023-07-20T16:18:25;98061.72;;;34.24
49557;BMP280;35462;45.048;7.666;2023-07-20T16:33:45;98043.22;;;34.15
49557;BMP280;35462;45.048;7.666;2023-07-20T16:49:05;98029.16;;;33.70
49557;BMP280;35462;45.048;7.666;2023-07-20T17:04:26;98027.03;;;33.59
49557;BMP280;35462;45.048;7.666;2023-07-20T17:19:46;98031.50;;;33.34
49557;BMP280;35462;45.048;7.666;2023-07-20T17:35:05;98031.66;;;33.17
49557;BMP280;35462;45.048;7.666;2023-07-20T17:50:24;98041.34;;;33.18
49557;BMP280;35462;45.048;7.666;2023-07-20T18:05:45;98041.63;;;33.12
49557;BMP280;35462;45.048;7.666;2023-07-20T18:21:05;98048.28;;;33.19
49557;BMP280;35462;45.048;7.666;2023-07-20T18:36:25;98048.47;;;32.83
49557;BMP280;35462;45.048;7.666;2023-07-20T18:51:44;98058.16;;;32.94
49557;BMP280;35462;45.048;7.666;2023-07-20T19:07:03;98064.19;;;32.83
49557;BMP280;35462;45.048;7.666;2023-07-20T19:22:23;98073.88;;;32.84
49557;BMP280;35462;45.048;7.666;2023-07-20T19:37:42;98095.97;;;32.48
49557;BMP280;35462;45.048;7.666;2023-07-20T19:53:03;98105.59;;;32.40
49557;BMP280;35462;45.048;7.666;2023-07-20T20:08:22;98122.25;;;32.51
49557;BMP280;35462;45.048;7.666;2023-07-20T20:23:44;98125.28;;;32.46
49557;BMP280;35462;45.048;7.666;2023-07-20T20:39:04;98133.47;;;32.36
49557;BMP280;35462;45.048;7.666;2023-07-20T20:54:24;98144.13;;;32.32
49557;BMP280;35462;45.048;7.666;2023-07-20T21:09:44;98147.25;;;32.19
49557;BMP280;35462;45.048;7.666;2023-07-20T21:25:04;98139.69;;;32.01
49557;BMP280;35462;45.048;7.666;2023-07-20T21:40:27;98146.28;;;31.98
49557;BMP280;35462;45.048;7.666;2023-07-20T21:55:47;98134.00;;;31.90
49557;BMP280;35462;45.048;7.666;2023-07-20T22:11:09;98134.34;;;31.77
49557;BMP280;35462;45.048;7.666;2023-07-20T22:26:28;98156.44;;;31.36
49557;BMP280;35462;45.048;7.666;2023-07-20T22:41:48;98176.31;;;31.19
49557;BMP280;35462;45.048;7.666;2023-07-20T22:57:08;98168.75;;;31.27
49557;BMP280;35462;45.048;7.666;2023-07-20T23:12:27;98164.25;;;31.22
49557;BMP280;35462;45.048;7.666;2023-07-20T23:27:48;98168.44;;;31.06
49557;BMP280;35462;45.048;7.666;2023-07-20T23:43:07;98168.75;;;30.94
49557;BMP280;35462;45.048;7.666;2023-07-20T23:58:27;98176.03;;;30.74
